sensor_id;sensor_type;location;lat;lon;timestamp;P1;durP1;ratioP1;P2;durP2;ratioP2
12469;SDS011;36499;46.484;13.832;2024-01-15T00:01:07;12.37;;;7.77;;
12469;SDS011;36499;46.484;13.832;2024-01-15T00:03:35;13.40;;;8.00;;
12469;SDS011;36499;46.484;13.832;2024-01-15T00:06:02;11.90;;;7.97;;
12469;SDS011;36499;46.484;13.832;2024-01-15T00:08:30;11.27;;;7.50;;
12469;SDS011;36499;46.484;13.832;2024-01-15T00:10:57;14.10;;;7.30;;
12469;SDS011;36499;46.484;13.832;2024-01-15T00:13:23;10.00;;;6.33;;
12469;SDS011;36499;46.484;13.832;2024-01-15T00:15:50;9.17;;;5.87;;
12469;SDS011;36499;46.484;13.832;2024-01-15T00:18:17;14.83;;;7.20;;
12469;SDS011;36499;46.484;13.832;2024-01-15T00:20:45;13.13;;;8.20;;
12469;SDS011;36499;46.484;13.832;2024-01-15T00:23:12;12.47;;;7.97;;
12469;SDS011;36499;46.484;13.832;2024-01-15T00:25:39;11.33;;;7.13;;
12469;SDS011;36499;46.484;13.832;2024-01-15T00:28:07;12.80;;;7.63;;
12469;SDS011;36499;46.484;13.832;2024-01-15T00:30:34;13.67;;;8.13;;
12469;SDS011;36499;46.484;13.832;2024-01-15T00:33:00;13.43;;;7.97;;
12469;SDS011;36499;46.484;13.832;2024-01-15T00:35:27;12.63;;;7.97;;
12469;SDS011;36499;46.484;13.832;2024-01-15T00:37:55;10.57;;;6.90;;
12469;SDS011;36499;46.484;13.832;2024-01-15T00:40:22;14.80;;;8.27;;
12469;SDS011;36499;46.484;13.832;2024-01-15T00:42:50;10.63;;;6.57;;
12469;SDS011;36499;46.484;13.832;2024-01-15T00:45:17;9.47;;;6.07;;
12469;SDS011;36499;46.484;13.832;2024-01-15T00:47:44;9.50;;;5.73;;
12469;SDS011;36499;46.484;13.832;2024-01-15T00:50:11;9.23;;;5.37;;
12469;SDS011;36499;46.484;13.832;2024-01-15T00:52:38;11.37;;;6.10;;
12469;SDS011;36499;46.484;13.832;2024-01-15T00:55:06;9.17;;;5.70;;
12469;SDS011;36499;46.484;13.832;2024-01-15T00:57:33;13.70;;;7.53;;
12469;SDS011;36499;46.484;13.832;2024-01-15T01:00:00;17.37;;;8.00;;
12469;SDS011;36499;46.484;13.832;2024-01-15T01:02:28;14.47;;;8.37;;
12469;SDS011;36499;46.484;13.832;2024-01-15T01:04:55;16.53;;;9.33;;
12469;SDS011;36499;46.484;13.832;2024-01-15T01:07:21;14.93;;;9.47;;
12469;SDS011;36499;46.484;13.832;2024-01-15T01:09:48;15.17;;;8.33;;
12469;SDS011;36499;46.484;13.832;2024-01-15T01:12:17;14.13;;;8.77;;
12469;SDS011;36499;46.484;13.832;2024-01-15T01:14:44;13.73;;;8.20;;
12469;SDS011;36499;46.484;13.832;2024-01-15T01:17:11;13.20;;;7.77;;
12469;SDS011;36499;46.484;13.832;2024-01-15T01:19:38;11.30;;;7.50;;
12469;SDS011;36499;46.484;13.832;2024-01-15T01:22:05;8.80;;;6.20;;
12469;SDS011;36499;46.484;13.832;2024-01-15T01:24:31;9.83;;;6.40;;
12469;SDS011;36499;46.484;13.832;2024-01-15T01:26:59;9.97;;;7.00;;
12469;SDS011;36499;46.484;13.832;2024-01-15T01:29:27;13.03;;;7.63;;
12469;SDS011;36499;46.484;13.832;2024-01-15T01:31:54;15.90;;;7.97;;
12469;SDS011;36499;46.484;13.832;2024-01-15T01:34:21;13.73;;;8.40;;
12469;SDS011;36499;46.484;13.832;2024-01-15T01:36:48;15.17;;;9.53;;
12469;SDS011;36499;46.484;13.832;2024-01-15T01:39:15;10.10;;;6.60;;
12469;SDS011;36499;46.484;13.832;2024-01-15T01:41:42;9.10;;;5.50;;
12469;SDS011;36499;46.484;13.832;2024-01-15T01:44:09;8.60;;;6.17;;
12469;SDS011;36499;46.484;13.832;2024-01-15T01:46:37;25.07;;;13.27;;
12469;SDS011;36499;46.484;13.832;2024-01-15T01:49:05;11.43;;;7.67;;
12469;SDS011;36499;46.484;13.832;2024-01-15T01:51:33;9.80;;;7.10;;
12469;SDS011;36499;46.484;13.832;2024-01-15T01:54:02;11.20;;;7.40;;
12469;SDS011;36499;46.484;13.832;2024-01-15T01:56:30;10.60;;;6.60;;
12469;SDS011;36499;46.484;13.832;2024-01-15T01:58:57;10.90;;;6.97;;
12469;SDS011;36499;46.484;13.832;2024-01-15T02:01:24;9.50;;;6.40;;
12469;SDS011;36499;46.484;13.832;2024-01-15T02:03:53;11.33;;;7.13;;
12469;SDS011;36499;46.484;13.832;2024-01-15T02:06:21;10.17;;;7.13;;
12469;SDS011;36499;46.484;13.832;2024-01-15T02:08:49;14.93;;;6.90;;
12469;SDS011;36499;46.484;13.832;2024-01-15T02:11:16;11.60;;;6.90;;
12469;SDS011;36499;46.484;13.832;2024-01-15T02:13:43;9.70;;;6.50;;
12469;SDS011;36499;46.484;13.832;2024-01-15T02:16:10;12.03;;;6.60;;
12469;SDS011;36499;46.484;13.832;2024-01-15T02:18:40;9.80;;;6.13;;
12469;SDS011;36499;46.484;13.832;2024-01-15T02:21:09;9.90;;;6.23;;
12469;SDS011;36499;46.484;13.832;2024-01-15T02:23:38;12.27;;;7.70;;
12469;SDS011;36499;46.484;13.832;2024-01-15T02:26:05;11.57;;;7.00;;
12469;SDS011;36499;46.484;13.832;2024-01-15T02:28:34;15.10;;;7.97;;
12469;SDS011;36499;46.484;13.832;2024-01-15T02:31:01;11.80;;;7.73;;
12469;SDS011;36499;46.484;13.832;2024-01-15T02:33:27;17.27;;;8.13;;
12469;SDS011;36499;46.484;13.832;2024-01-15T02:35:54;15.17;;;9.37;;
12469;SDS011;36499;46.484;13.832;2024-01-15T02:38:21;13.93;;;8.47;;
12469;SDS011;36499;46.484;13.832;2024-01-15T02:40:49;14.63;;;8.57;;
12469;SDS011;36499;46.484;13.832;2024-01-15T02:43:16;13.87;;;8.57;;
12469;SDS011;36499;46.484;13.832;2024-01-15T02:45:44;16.40;;;9.63;;
12469;SDS011;36499;46.484;13.832;2024-01-15T02:48:11;19.10;;;9.40;;
12469;SDS011;36499;46.484;13.832;2024-01-15T02:50:38;15.33;;;8.97;;
12469;SDS011;36499;46.484;13.832;2024-01-15T02:53:05;14.43;;;8.93;;
12469;SDS011;36499;46.484;13.832;2024-01-15T02:55:32;15.50;;;8.33;;
12469;SDS011;36499;46.484;13.832;2024-01-15T02:58:00;11.27;;;8.23;;
12469;SDS011;36499;46.484;13.832;2024-01-15T03:00:27;15.10;;;9.23;;
12469;SDS011;36499;46.484;13.832;2024-01-15T03:02:54;12.33;;;7.87;;
12469;SDS011;36499;46.484;13.832;2024-01-15T03:05:21;14.33;;;8.67;;
12469;SDS011;36499;46.484;13.832;2024-01-15T03:07:47;11.83;;;7.87;;
12469;SDS011;36499;46.484;13.832;2024-01-15T03:10:14;12.43;;;7.63;;
12469;SDS011;36499;46.484;13.832;2024-01-15T03:12:41;16.30;;;8.10;;
12469;SDS011;36499;46.484;13.832;2024-01-15T03:15:10;11.33;;;7.10;;
12469;SDS011;36499;46.484;13.832;2024-01-15T03:17:36;13.00;;;8.23;;
12469;SDS011;36499;46.484;13.832;2024-01-15T03:20:04;10.93;;;7.23;;
12469;SDS011;36499;46.484;13.832;2024-01-15T03:22:31;17.83;;;7.67;;
12469;SDS011;36499;46.484;13.832;2024-01-15T03:24:58;13.23;;;8.43;;
12469;SDS011;36499;46.484;13.832;2024-01-15T03:27:25;15.47;;;7.93;;
12469;SDS011;36499;46.484;13.832;2024-01-15T03:29:52;13.50;;;7.93;;
12469;SDS011;36499;46.484;13.832;2024-01-15T03:32:20;13.13;;;7.87;;
12469;SDS011;36499;46.484;13.832;2024-01-15T03:34:47;10.63;;;7.37;;
12469;SDS011;36499;46.484;13.832;2024-01-15T03:37:14;11.87;;;7.50;;
12469;SDS011;36499;46.484;13.832;2024-01-15T03:39:40;13.10;;;7.23;;
12469;SDS011;36499;46.484;13.832;2024-01-15T03:42:07;14.30;;;7.23;;
12469;SDS011;36499;46.484;13.832;2024-01-15T03:44:34;11.70;;;8.03;;
12469;SDS011;36499;46.484;13.832;2024-01-15T03:47:01;13.67;;;8.07;;
12469;SDS011;36499;46.484;13.832;2024-01-15T03:49:29;17.13;;;8.63;;
12469;SDS011;36499;46.484;13.832;2024-01-15T03:51:56;15.37;;;7.77;;
12469;SDS011;36499;46.484;13.832;2024-01-15T03:54:23;14.00;;;7.83;;
12469;SDS011;36499;46.484;13.832;2024-01-15T03:56:49;15.23;;;7.60;;
12469;SDS011;36499;46.484;13.832;2024-01-15T03:59:16;12.47;;;7.80;;
12469;SDS011;36499;46.484;13.832;2024-01-15T04:01:47;14.43;;;7.87;;
12469;SDS011;36499;46.484;13.832;2024-01-15T04:04:16;13.73;;;8.00;;
12469;SDS011;36499;46.484;13.832;2024-01-15T04:06:44;15.60;;;7.80;;
12469;SDS011;36499;46.484;13.832;2024-01-15T04:09:11;11.37;;;7.60;;
12469;SDS011;36499;46.484;13.832;2024-01-15T04:11:38;12.27;;;7.67;;
12469;SDS011;36499;46.484;13.832;2024-01-15T04:14:06;12.77;;;7.80;;
12469;SDS011;36499;46.484;13.832;2024-01-15T04:16:32;13.30;;;7.90;;
12469;SDS011;36499;46.484;13.832;2024-01-15T04:18:59;17.27;;;8.97;;
12469;SDS011;36499;46.484;13.832;2024-01-15T04:21:26;17.23;;;9.47;;
12469;SDS011;36499;46.484;13.832;2024-01-15T04:23:54;16.13;;;8.77;;
12469;SDS011;36499;46.484;13.832;2024-01-15T04:26:21;13.70;;;7.67;;
12469;SDS011;36499;46.484;13.832;2024-01-15T04:28:48;12.47;;;8.27;;
12469;SDS011;36499;46.484;13.832;2024-01-15T04:31:24;14.73;;;8.20;;
12469;SDS011;36499;46.484;13.832;2024-01-15T04:33:52;12.97;;;8.37;;
12469;SDS011;36499;46.484;13.832;2024-01-15T04:36:19;14.47;;;8.27;;
12469;SDS011;36499;46.484;13.832;2024-01-15T04:38:46;13.27;;;7.63;;
12469;SDS011;36499;46.484;13.832;2024-01-15T04:41:15;12.93;;;7.93;;
12469;SDS011;36499;46.484;13.832;2024-01-15T04:43:43;17.33;;;7.93;;
12469;SDS011;36499;46.484;13.832;2024-01-15T04:46:09;12.27;;;7.57;;
12469;SDS011;36499;46.484;13.832;2024-01-15T04:48:36;16.37;;;7.97;;
12469;SDS011;36499;46.484;13.832;2024-01-15T04:51:04;11.10;;;6.90;;
12469;SDS011;36499;46.484;13.832;2024-01-15T04:53:31;11.57;;;7.27;;
12469;SDS011;36499;46.484;13.832;2024-01-15T04:55:58;12.73;;;7.37;;
12469;SDS011;36499;46.484;13.832;2024-01-15T04:58:26;13.00;;;8.00;;
12469;SDS011;36499;46.484;13.832;2024-01-15T05:00:53;13.23;;;7.40;;
12469;SDS011;36499;46.484;13.832;2024-01-15T05:03:20;14.57;;;8.33;;
12469;SDS011;36499;46.484;13.832;2024-01-15T05:05:47;15.10;;;8.97;;
12469;SDS011;36499;46.484;13.832;2024-01-15T05:08:14;12.07;;;7.80;;
12469;SDS011;36499;46.484;13.832;2024-01-15T05:10:41;13.27;;;7.23;;
12469;SDS011;36499;46.484;13.832;2024-01-15T05:13:07;11.10;;;6.67;;
12469;SDS011;36499;46.484;13.832;2024-01-15T05:15:36;13.70;;;8.17;;
12469;SDS011;36499;46.484;13.832;2024-01-15T05:18:03;11.27;;;7.80;;
12469;SDS011;36499;46.484;13.832;2024-01-15T05:20:30;14.33;;;8.00;;
12469;SDS011;36499;46.484;13.832;2024-01-15T05:22:56;14.40;;;8.03;;
12469;SDS011;36499;46.484;13.832;2024-01-15T05:25:23;11.33;;;7.17;;
12469;SDS011;36499;46.484;13.832;2024-01-15T05:27:50;11.00;;;6.80;;
12469;SDS011;36499;46.484;13.832;2024-01-15T05:30:17;11.27;;;7.33;;
12469;SDS011;36499;46.484;13.832;2024-01-15T05:32:45;13.63;;;7.63;;
12469;SDS011;36499;46.484;13.832;2024-01-15T05:35:12;14.37;;;8.20;;
12469;SDS011;36499;46.484;13.832;2024-01-15T05:37:41;11.60;;;7.90;;
12469;SDS011;36499;46.484;13.832;2024-01-15T05:40:10;13.47;;;7.00;;
12469;SDS011;36499;46.484;13.832;2024-01-15T05:42:38;17.10;;;7.00;;
12469;SDS011;36499;46.484;13.832;2024-01-15T05:45:05;17.83;;;10.40;;
12469;SDS011;36499;46.484;13.832;2024-01-15T05:47:32;12.27;;;6.80;;
12469;SDS011;36499;46.484;13.832;2024-01-15T05:50:01;10.77;;;6.83;;
12469;SDS011;36499;46.484;13.832;2024-01-15T05:52:28;15.30;;;7.80;;
12469;SDS011;36499;46.484;13.832;2024-01-15T05:54:55;10.47;;;7.20;;
12469;SDS011;36499;46.484;13.832;2024-01-15T05:57:22;10.90;;;7.27;;
12469;SDS011;36499;46.484;13.832;2024-01-15T05:59:49;10.23;;;6.73;;
12469;SDS011;36499;46.484;13.832;2024-01-15T06:02:16;13.47;;;7.50;;
12469;SDS011;36499;46.484;13.832;2024-01-15T06:04:43;15.40;;;7.73;;
12469;SDS011;36499;46.484;13.832;2024-01-15T06:07:11;18.10;;;8.20;;
12469;SDS011;36499;46.484;13.832;2024-01-15T06:09:38;14.00;;;8.07;;
12469;SDS011;36499;46.484;13.832;2024-01-15T06:12:06;15.23;;;8.17;;
12469;SDS011;36499;46.484;13.832;2024-01-15T06:14:34;18.47;;;9.70;;
12469;SDS011;36499;46.484;13.832;2024-01-15T06:17:00;14.40;;;7.80;;
12469;SDS011;36499;46.484;13.832;2024-01-15T06:19:27;11.47;;;7.50;;
12469;SDS011;36499;46.484;13.832;2024-01-15T06:21:54;11.17;;;6.73;;
12469;SDS011;36499;46.484;13.832;2024-01-15T06:24:23;11.57;;;6.60;;
12469;SDS011;36499;46.484;13.832;2024-01-15T06:26:49;17.27;;;8.73;;
12469;SDS011;36499;46.484;13.832;2024-01-15T06:29:16;14.23;;;8.77;;
12469;SDS011;36499;46.484;13.832;2024-01-15T06:31:43;21.17;;;11.57;;
12469;SDS011;36499;46.484;13.832;2024-01-15T06:34:10;22.13;;;12.87;;
12469;SDS011;36499;46.484;13.832;2024-01-15T06:36:37;12.30;;;7.00;;
12469;SDS011;36499;46.484;13.832;2024-01-15T06:39:04;13.97;;;7.10;;
12469;SDS011;36499;46.484;13.832;2024-01-15T06:41:32;15.07;;;7.47;;
12469;SDS011;36499;46.484;13.832;2024-01-15T06:43:59;29.00;;;16.53;;
12469;SDS011;36499;46.484;13.832;2024-01-15T06:46:26;17.77;;;10.97;;
12469;SDS011;36499;46.484;13.832;2024-01-15T06:48:52;14.23;;;9.43;;
12469;SDS011;36499;46.484;13.832;2024-01-15T06:51:19;17.97;;;9.70;;
12469;SDS011;36499;46.484;13.832;2024-01-15T06:53:46;13.97;;;8.57;;
12469;SDS011;36499;46.484;13.832;2024-01-15T06:56:13;16.20;;;9.33;;
12469;SDS011;36499;46.484;13.832;2024-01-15T06:58:42;17.97;;;10.10;;
12469;SDS011;36499;46.484;13.832;2024-01-15T07:01:09;15.40;;;8.40;;
12469;SDS011;36499;46.484;13.832;2024-01-15T07:03:36;13.27;;;8.50;;
12469;SDS011;36499;46.484;13.832;2024-01-15T07:06:04;13.20;;;9.07;;
12469;SDS011;36499;46.484;13.832;2024-01-15T07:08:31;13.70;;;8.13;;
12469;SDS011;36499;46.484;13.832;2024-01-15T07:10:58;19.83;;;9.63;;
12469;SDS011;36499;46.484;13.832;2024-01-15T07:13:24;14.40;;;8.37;;
12469;SDS011;36499;46.484;13.832;2024-01-15T07:15:53;13.33;;;7.10;;
12469;SDS011;36499;46.484;13.832;2024-01-15T07:18:19;13.13;;;7.67;;
12469;SDS011;36499;46.484;13.832;2024-01-15T07:20:46;15.53;;;8.57;;
12469;SDS011;36499;46.484;13.832;2024-01-15T07:23:13;21.80;;;10.00;;
12469;SDS011;36499;46.484;13.832;2024-01-15T07:25:40;18.23;;;10.53;;
12469;SDS011;36499;46.484;13.832;2024-01-15T07:28:07;19.43;;;10.70;;
12469;SDS011;36499;46.484;13.832;2024-01-15T07:30:34;22.27;;;10.80;;
12469;SDS011;36499;46.484;13.832;2024-01-15T07:33:05;18.20;;;10.87;;
12469;SDS011;36499;46.484;13.832;2024-01-15T07:35:32;22.17;;;11.90;;
12469;SDS011;36499;46.484;13.832;2024-01-15T07:37:59;17.23;;;10.13;;
12469;SDS011;36499;46.484;13.832;2024-01-15T07:40:25;18.70;;;9.87;;
12469;SDS011;36499;46.484;13.832;2024-01-15T07:42:52;15.83;;;8.87;;
12469;SDS011;36499;46.484;13.832;2024-01-15T07:45:19;14.20;;;8.90;;
12469;SDS011;36499;46.484;13.832;2024-01-15T07:47:46;14.93;;;8.53;;
12469;SDS011;36499;46.484;13.832;2024-01-15T07:50:15;17.47;;;8.60;;
12469;SDS011;36499;46.484;13.832;2024-01-15T07:52:42;17.23;;;8.90;;
12469;SDS011;36499;46.484;13.832;2024-01-15T07:55:09;17.03;;;9.37;;
12469;SDS011;36499;46.484;13.832;2024-01-15T07:57:36;16.10;;;8.73;;
12469;SDS011;36499;46.484;13.832;2024-01-15T08:00:03;18.50;;;9.67;;
12469;SDS011;36499;46.484;13.832;2024-01-15T08:02:31;13.77;;;8.57;;
12469;SDS011;36499;46.484;13.832;2024-01-15T08:04:58;18.87;;;8.57;;
12469;SDS011;36499;46.484;13.832;2024-01-15T08:07:26;18.83;;;9.70;;
12469;SDS011;36499;46.484;13.832;2024-01-15T08:09:53;19.03;;;10.37;;
12469;SDS011;36499;46.484;13.832;2024-01-15T08:12:19;16.47;;;9.57;;
12469;SDS011;36499;46.484;13.832;2024-01-15T08:14:46;16.40;;;9.43;;
12469;SDS011;36499;46.484;13.832;2024-01-15T08:17:12;16.10;;;8.93;;
12469;SDS011;36499;46.484;13.832;2024-01-15T08:19:41;19.10;;;10.90;;
12469;SDS011;36499;46.484;13.832;2024-01-15T08:22:08;19.03;;;9.90;;
12469;SDS011;36499;46.484;13.832;2024-01-15T08:24:37;17.20;;;10.60;;
12469;SDS011;36499;46.484;13.832;2024-01-15T08:27:04;17.57;;;9.87;;
12469;SDS011;36499;46.484;13.832;2024-01-15T08:29:31;14.13;;;9.03;;
12469;SDS011;36499;46.484;13.832;2024-01-15T08:32:00;16.93;;;9.23;;
12469;SDS011;36499;46.484;13.832;2024-01-15T08:34:26;16.63;;;9.93;;
12469;SDS011;36499;46.484;13.832;2024-01-15T08:36:53;16.70;;;9.60;;
12469;SDS011;36499;46.484;13.832;2024-01-15T08:39:20;21.13;;;10.00;;
12469;SDS011;36499;46.484;13.832;2024-01-15T08:41:48;16.87;;;9.77;;
12469;SDS011;36499;46.484;13.832;2024-01-15T08:44:15;21.60;;;10.07;;
12469;SDS011;36499;46.484;13.832;2024-01-15T08:46:43;14.77;;;9.00;;
12469;SDS011;36499;46.484;13.832;2024-01-15T08:49:10;18.23;;;9.53;;
12469;SDS011;36499;46.484;13.832;2024-01-15T08:51:36;22.27;;;10.07;;
12469;SDS011;36499;46.484;13.832;2024-01-15T08:54:04;15.73;;;9.80;;
12469;SDS011;36499;46.484;13.832;2024-01-15T08:56:33;14.37;;;9.60;;
12469;SDS011;36499;46.484;13.832;2024-01-15T08:59:01;16.87;;;9.57;;
12469;SDS011;36499;46.484;13.832;2024-01-15T09:01:28;15.80;;;9.77;;
12469;SDS011;36499;46.484;13.832;2024-01-15T09:03:56;19.50;;;8.83;;
12469;SDS011;36499;46.484;13.832;2024-01-15T09:06:23;17.30;;;9.57;;
12469;SDS011;36499;46.484;13.832;2024-01-15T09:08:49;15.30;;;9.30;;
12469;SDS011;36499;46.484;13.832;2024-01-15T09:11:16;15.43;;;8.43;;
12469;SDS011;36499;46.484;13.832;2024-01-15T09:13:43;16.47;;;8.60;;
12469;SDS011;36499;46.484;13.832;2024-01-15T09:16:11;12.87;;;8.13;;
12469;SDS011;36499;46.484;13.832;2024-01-15T09:18:38;13.83;;;8.43;;
12469;SDS011;36499;46.484;13.832;2024-01-15T09:21:05;14.93;;;7.83;;
12469;SDS011;36499;46.484;13.832;2024-01-15T09:23:32;13.87;;;7.83;;
12469;SDS011;36499;46.484;13.832;2024-01-15T09:25:59;17.50;;;7.20;;
12469;SDS011;36499;46.484;13.832;2024-01-15T09:28:25;15.07;;;8.80;;
12469;SDS011;36499;46.484;13.832;2024-01-15T09:30:53;18.90;;;10.10;;
12469;SDS011;36499;46.484;13.832;2024-01-15T09:33:21;18.57;;;10.10;;
12469;SDS011;36499;46.484;13.832;2024-01-15T09:35:48;16.43;;;8.97;;
12469;SDS011;36499;46.484;13.832;2024-01-15T09:38:14;15.57;;;7.50;;
12469;SDS011;36499;46.484;13.832;2024-01-15T09:40:43;14.43;;;8.60;;
12469;SDS011;36499;46.484;13.832;2024-01-15T09:43:12;14.80;;;8.43;;
12469;SDS011;36499;46.484;13.832;2024-01-15T09:45:40;20.40;;;9.30;;
12469;SDS011;36499;46.484;13.832;2024-01-15T09:48:08;15.63;;;8.10;;
12469;SDS011;36499;46.484;13.832;2024-01-15T09:50:37;13.17;;;7.37;;
12469;SDS011;36499;46.484;13.832;2024-01-15T09:53:03;12.20;;;7.03;;
12469;SDS011;36499;46.484;13.832;2024-01-15T09:55:31;15.33;;;6.53;;
12469;SDS011;36499;46.484;13.832;2024-01-15T09:57:59;8.60;;;5.80;;
12469;SDS011;36499;46.484;13.832;2024-01-15T10:00:27;10.07;;;5.97;;
12469;SDS011;36499;46.484;13.832;2024-01-15T10:02:56;10.37;;;6.53;;
12469;SDS011;36499;46.484;13.832;2024-01-15T10:05:25;10.37;;;6.27;;
12469;SDS011;36499;46.484;13.832;2024-01-15T10:07:54;11.37;;;6.97;;
12469;SDS011;36499;46.484;13.832;2024-01-15T10:10:22;11.70;;;7.43;;
12469;SDS011;36499;46.484;13.832;2024-01-15T10:12:49;11.83;;;6.53;;
12469;SDS011;36499;46.484;13.832;2024-01-15T10:15:16;10.40;;;6.50;;
12469;SDS011;36499;46.484;13.832;2024-01-15T10:17:43;10.13;;;6.27;;
12469;SDS011;36499;46.484;13.832;2024-01-15T10:20:10;10.30;;;6.37;;
12469;SDS011;36499;46.484;13.832;2024-01-15T10:22:39;9.10;;;6.27;;
12469;SDS011;36499;46.484;13.832;2024-01-15T10:25:11;9.13;;;5.93;;
12469;SDS011;36499;46.484;13.832;2024-01-15T10:27:38;9.90;;;5.97;;
12469;SDS011;36499;46.484;13.832;2024-01-15T10:30:06;9.10;;;5.70;;
12469;SDS011;36499;46.484;13.832;2024-01-15T10:32:34;7.07;;;5.20;;
12469;SDS011;36499;46.484;13.832;2024-01-15T10:35:01;8.20;;;5.60;;
12469;SDS011;36499;46.484;13.832;2024-01-15T10:37:28;9.93;;;5.40;;
12469;SDS011;36499;46.484;13.832;2024-01-15T10:39:54;8.97;;;5.37;;
12469;SDS011;36499;46.484;13.832;2024-01-15T10:42:23;6.80;;;4.70;;
12469;SDS011;36499;46.484;13.832;2024-01-15T10:44:50;7.80;;;4.97;;
12469;SDS011;36499;46.484;13.832;2024-01-15T10:47:16;10.90;;;4.73;;
12469;SDS011;36499;46.484;13.832;2024-01-15T10:49:44;6.57;;;4.60;;
12469;SDS011;36499;46.484;13.832;2024-01-15T10:52:12;8.53;;;4.80;;
12469;SDS011;36499;46.484;13.832;2024-01-15T10:54:40;6.53;;;4.27;;
12469;SDS011;36499;46.484;13.832;2024-01-15T10:57:09;7.13;;;4.90;;
12469;SDS011;36499;46.484;13.832;2024-01-15T10:59:39;6.20;;;4.50;;
12469;SDS011;36499;46.484;13.832;2024-01-15T11:02:06;6.10;;;4.67;;
12469;SDS011;36499;46.484;13.832;2024-01-15T11:04:35;9.00;;;5.00;;
12469;SDS011;36499;46.484;13.832;2024-01-15T11:07:03;6.30;;;4.40;;
12469;SDS011;36499;46.484;13.832;2024-01-15T11:09:32;9.90;;;4.67;;
12469;SDS011;36499;46.484;13.832;2024-01-15T11:12:09;6.70;;;4.70;;
12469;SDS011;36499;46.484;13.832;2024-01-15T11:14:42;6.77;;;4.40;;
12469;SDS011;36499;46.484;13.832;2024-01-15T11:17:12;6.27;;;4.13;;
12469;SDS011;36499;46.484;13.832;2024-01-15T11:19:44;4.40;;;2.83;;
12469;SDS011;36499;46.484;13.832;2024-01-15T11:25:12;5.53;;;3.57;;
12469;SDS011;36499;46.484;13.832;2024-01-15T11:27:40;3.80;;;3.03;;
12469;SDS011;36499;46.484;13.832;2024-01-15T11:30:11;5.20;;;2.90;;
12469;SDS011;36499;46.484;13.832;2024-01-15T11:32:38;5.07;;;2.70;;
12469;SDS011;36499;46.484;13.832;2024-01-15T11:35:06;3.33;;;2.20;;
12469;SDS011;36499;46.484;13.832;2024-01-15T11:43:07;4.67;;;2.80;;
12469;SDS011;36499;46.484;13.832;2024-01-15T11:45:37;4.67;;;2.67;;
12469;SDS011;36499;46.484;13.832;2024-01-15T11:48:10;4.97;;;2.70;;
12469;SDS011;36499;46.484;13.832;2024-01-15T11:50:39;4.13;;;2.70;;
12469;SDS011;36499;46.484;13.832;2024-01-15T11:53:10;4.03;;;2.70;;
12469;SDS011;36499;46.484;13.832;2024-01-15T11:55:43;3.30;;;2.40;;
12469;SDS011;36499;46.484;13.832;2024-01-15T11:58:11;2.90;;;2.17;;
12469;SDS011;36499;46.484;13.832;2024-01-15T12:00:40;3.90;;;2.60;;
12469;SDS011;36499;46.484;13.832;2024-01-15T12:03:09;2.77;;;2.40;;
12469;SDS011;36499;46.484;13.832;2024-01-15T12:05:36;2.57;;;2.10;;
12469;SDS011;36499;46.484;13.832;2024-01-15T12:08:04;3.30;;;1.90;;
12469;SDS011;36499;46.484;13.832;2024-01-15T12:10:35;2.33;;;1.87;;
12469;SDS011;36499;46.484;13.832;2024-01-15T12:13:04;3.13;;;2.30;;
12469;SDS011;36499;46.484;13.832;2024-01-15T12:15:33;3.40;;;2.40;;
12469;SDS011;36499;46.484;13.832;2024-01-15T12:18:02;2.83;;;2.20;;
12469;SDS011;36499;46.484;13.832;2024-01-15T12:20:29;2.37;;;2.10;;
12469;SDS011;36499;46.484;13.832;2024-01-15T12:22:57;4.80;;;2.27;;
12469;SDS011;36499;46.484;13.832;2024-01-15T12:25:24;4.40;;;2.27;;
12469;SDS011;36499;46.484;13.832;2024-01-15T12:27:53;3.70;;;2.37;;
12469;SDS011;36499;46.484;13.832;2024-01-15T12:30:20;3.43;;;2.10;;
12469;SDS011;36499;46.484;13.832;2024-01-15T12:32:47;3.47;;;2.10;;
12469;SDS011;36499;46.484;13.832;2024-01-15T12:35:15;2.40;;;1.87;;
12469;SDS011;36499;46.484;13.832;2024-01-15T12:37:42;2.47;;;1.93;;
12469;SDS011;36499;46.484;13.832;2024-01-15T12:40:11;3.03;;;1.83;;
12469;SDS011;36499;46.484;13.832;2024-01-15T12:42:39;2.50;;;1.97;;
12469;SDS011;36499;46.484;13.832;2024-01-15T12:45:07;2.07;;;1.63;;
12469;SDS011;36499;46.484;13.832;2024-01-15T12:47:35;4.00;;;1.90;;
12469;SDS011;36499;46.484;13.832;2024-01-15T12:50:04;3.63;;;2.47;;
12469;SDS011;36499;46.484;13.832;2024-01-15T12:52:34;2.83;;;1.97;;
12469;SDS011;36499;46.484;13.832;2024-01-15T12:55:03;3.07;;;2.47;;
12469;SDS011;36499;46.484;13.832;2024-01-15T12:57:30;2.63;;;2.27;;
12469;SDS011;36499;46.484;13.832;2024-01-15T12:59:57;3.40;;;2.30;;
12469;SDS011;36499;46.484;13.832;2024-01-15T13:02:24;3.37;;;2.40;;
12469;SDS011;36499;46.484;13.832;2024-01-15T13:04:51;3.13;;;2.43;;
12469;SDS011;36499;46.484;13.832;2024-01-15T13:07:19;2.63;;;2.30;;
12469;SDS011;36499;46.484;13.832;2024-01-15T13:09:47;2.50;;;1.93;;
12469;SDS011;36499;46.484;13.832;2024-01-15T13:12:17;2.00;;;1.73;;
12469;SDS011;36499;46.484;13.832;2024-01-15T13:14:44;2.23;;;1.90;;
12469;SDS011;36499;46.484;13.832;2024-01-15T13:17:11;2.57;;;1.97;;
12469;SDS011;36499;46.484;13.832;2024-01-15T13:19:39;4.37;;;2.13;;
12469;SDS011;36499;46.484;13.832;2024-01-15T13:22:06;3.17;;;1.70;;
12469;SDS011;36499;46.484;13.832;2024-01-15T13:24:34;2.63;;;1.80;;
12469;SDS011;36499;46.484;13.832;2024-01-15T13:27:02;3.30;;;2.10;;
12469;SDS011;36499;46.484;13.832;2024-01-15T13:29:30;2.47;;;2.00;;
12469;SDS011;36499;46.484;13.832;2024-01-15T13:31:58;2.93;;;2.10;;
12469;SDS011;36499;46.484;13.832;2024-01-15T13:34:26;3.87;;;2.10;;
12469;SDS011;36499;46.484;13.832;2024-01-15T13:36:54;3.27;;;2.37;;
12469;SDS011;36499;46.484;13.832;2024-01-15T13:39:21;3.47;;;1.90;;
12469;SDS011;36499;46.484;13.832;2024-01-15T13:41:48;3.70;;;1.63;;
12469;SDS011;36499;46.484;13.832;2024-01-15T13:44:16;3.03;;;1.97;;
12469;SDS011;36499;46.484;13.832;2024-01-15T13:46:44;2.53;;;1.70;;
12469;SDS011;36499;46.484;13.832;2024-01-15T13:49:11;2.10;;;1.70;;
12469;SDS011;36499;46.484;13.832;2024-01-15T13:51:39;3.03;;;1.83;;
12469;SDS011;36499;46.484;13.832;2024-01-15T13:54:06;2.30;;;1.63;;
12469;SDS011;36499;46.484;13.832;2024-01-15T13:56:32;2.73;;;1.80;;
12469;SDS011;36499;46.484;13.832;2024-01-15T13:59:00;2.17;;;1.83;;
12469;SDS011;36499;46.484;13.832;2024-01-15T14:01:30;2.90;;;1.87;;
12469;SDS011;36499;46.484;13.832;2024-01-15T14:03:58;2.33;;;1.70;;
12469;SDS011;36499;46.484;13.832;2024-01-15T14:06:25;2.87;;;1.80;;
12469;SDS011;36499;46.484;13.832;2024-01-15T14:08:51;3.23;;;2.07;;
12469;SDS011;36499;46.484;13.832;2024-01-15T14:11:18;2.87;;;1.90;;
12469;SDS011;36499;46.484;13.832;2024-01-15T14:13:45;2.47;;;1.63;;
12469;SDS011;36499;46.484;13.832;2024-01-15T14:16:12;2.83;;;1.70;;
12469;SDS011;36499;46.484;13.832;2024-01-15T14:18:41;2.70;;;2.00;;
12469;SDS011;36499;46.484;13.832;2024-01-15T14:21:07;3.47;;;1.90;;
12469;SDS011;36499;46.484;13.832;2024-01-15T14:23:35;2.37;;;1.97;;
12469;SDS011;36499;46.484;13.832;2024-01-15T14:26:01;3.33;;;2.10;;
12469;SDS011;36499;46.484;13.832;2024-01-15T14:28:29;3.20;;;1.80;;
12469;SDS011;36499;46.484;13.832;2024-01-15T14:30:56;2.70;;;1.90;;
12469;SDS011;36499;46.484;13.832;2024-01-15T14:33:24;2.73;;;2.00;;
12469;SDS011;36499;46.484;13.832;2024-01-15T14:35:52;3.60;;;2.07;;